sensor_id;sensor_type;location;lat;lon;timestamp;pressure;altitude;pressure_sealevel;temperature;humidity
11810;BME280;5962;41.566;23.734;2024-03-02T00:01:55;94826.66;;;9.85;100.00
11810;BME280;5962;41.566;23.734;2024-03-02T00:04:23;94839.56;;;9.82;100.00
11810;BME280;5962;41.566;23.734;2024-03-02T00:06:51;94827.66;;;9.79;100.00
11810;BME280;5962;41.566;23.734;2024-03-02T00:09:21;94831.16;;;9.85;100.00
11810;BME280;5962;41.566;23.734;2024-03-02T00:11:49;94826.91;;;9.84;100.00
11810;BME280;5962;41.566;23.734;2024-03-02T00:14:17;94831.91;;;9.80;100.00
11810;BME280;5962;41.566;23.734;2024-03-02T00:16:47;94834.09;;;9.88;100.00
11810;BME280;5962;41.566;23.734;2024-03-02T00:19:15;94824.88;;;9.91;100.00
11810;BME280;5962;41.566;23.734;2024-03-02T00:21:43;94813.13;;;9.82;100.00
11810;BME280;5962;41.566;23.734;2024-03-02T00:24:19;94826.66;;;9.85;100.00
11810;BME280;5962;41.566;23.734;2024-03-02T00:26:48;94826.84;;;9.79;100.00
11810;BME280;5962;41.566;23.734;2024-03-02T00:29:17;94831.06;;;9.75;100.00
11810;BME280;5962;41.566;23.734;2024-03-02T00:31:47;94827.59;;;9.74;100.00
11810;BME280;5962;41.566;23.734;2024-03-02T00:34:15;94838.16;;;9.74;100.00
11810;BME280;5962;41.566;23.734;2024-03-02T00:36:45;94833.72;;;9.80;100.00
11810;BME280;5962;41.566;23.734;2024-03-02T00:39:15;94819.34;;;9.71;100.00
11810;BME280;5962;41.566;23.734;2024-03-02T00:41:44;94823.16;;;9.80;100.00
11810;BME280;5962;41.566;23.734;2024-03-02T00:44:13;94821.75;;;9.72;100.00
11810;BME280;5962;41.566;23.734;2024-03-02T00:46:42;94818.81;;;9.69;100.00
11810;BME280;5962;41.566;23.734;2024-03-02T00:49:20;94811.44;;;9.71;100.00
11810;BME280;5962;41.566;23.734;2024-03-02T00:51:50;94800.28;;;9.69;100.00
11810;BME280;5962;41.566;23.734;2024-03-02T00:54:19;94801.09;;;9.69;100.00
11810;BME280;5962;41.566;23.734;2024-03-02T00:56:48;94801.41;;;9.73;100.00
11810;BME280;5962;41.566;23.734;2024-03-02T00:59:16;94801.16;;;9.74;100.00
11810;BME280;5962;41.566;23.734;2024-03-02T01:01:44;94803.22;;;9.72;100.00
11810;BME280;5962;41.566;23.734;2024-03-02T01:04:14;94797.66;;;9.69;100.00
11810;BME280;5962;41.566;23.734;2024-03-02T01:06:42;94802.72;;;9.70;100.00
11810;BME280;5962;41.566;23.734;2024-03-02T01:09:10;94798.13;;;9.66;100.00
11810;BME280;5962;41.566;23.734;2024-03-02T01:11:40;94782.72;;;9.58;100.00
11810;BME280;5962;41.566;23.734;2024-03-02T01:14:08;94793.09;;;9.64;100.00
11810;BME280;5962;41.566;23.734;2024-03-02T01:16:36;94795.50;;;9.66;100.00
11810;BME280;5962;41.566;23.734;2024-03-02T01:19:04;94791.03;;;9.66;100.00
11810;BME280;5962;41.566;23.734;2024-03-02T01:21:33;94792.31;;;9.64;100.00
11810;BME280;5962;41.566;23.734;2024-03-02T01:24:02;94789.97;;;9.67;100.00
11810;BME280;5962;41.566;23.734;2024-03-02T01:26:30;94782.53;;;9.64;100.00
11810;BME280;5962;41.566;23.734;2024-03-02T01:28:58;94784.44;;;9.69;100.00
11810;BME280;5962;41.566;23.734;2024-03-02T01:31:26;94771.50;;;9.72;100.00
11810;BME280;5962;41.566;23.734;2024-03-02T01:33:54;94772.38;;;9.78;100.00
11810;BME280;5962;41.566;23.734;2024-03-02T01:36:22;94775.06;;;9.83;100.00
11810;BME280;5962;41.566;23.734;2024-03-02T01:38:52;94769.72;;;9.78;100.00
11810;BME280;5962;41.566;23.734;2024-03-02T01:41:20;94767.69;;;9.85;100.00
11810;BME280;5962;41.566;23.734;2024-03-02T01:43:48;94765.81;;;9.85;100.00
11810;BME280;5962;41.566;23.734;2024-03-02T01:46:16;94766.56;;;9.81;100.00
11810;BME280;5962;41.566;23.734;2024-03-02T01:48:44;94767.13;;;9.83;100.00
11810;BME280;5962;41.566;23.734;2024-03-02T01:51:12;94765.81;;;9.85;100.00
11810;BME280;5962;41.566;23.734;2024-03-02T01:53:40;94760.00;;;9.83;100.00
11810;BME280;5962;41.566;23.734;2024-03-02T01:56:09;94759.44;;;9.81;100.00
11810;BME280;5962;41.566;23.734;2024-03-02T01:58:37;94761.78;;;9.78;100.00
11810;BME280;5962;41.566;23.734;2024-03-02T02:01:05;94761.59;;;9.84;100.00
11810;BME280;5962;41.566;23.734;2024-03-02T02:03:33;94763.06;;;9.75;100.00
11810;BME280;5962;41.566;23.734;2024-03-02T02:06:02;94757.75;;;9.70;100.00
11810;BME280;5962;41.566;23.734;2024-03-02T02:08:30;94768.56;;;9.69;100.00
11810;BME280;5962;41.566;23.734;2024-03-02T02:10:58;94767.03;;;9.73;100.00
11810;BME280;5962;41.566;23.734;2024-03-02T02:13:27;94757.78;;;9.75;100.00
11810;BME280;5962;41.566;23.734;2024-03-02T02:15:55;94762.09;;;9.81;100.00
11810;BME280;5962;41.566;23.734;2024-03-02T02:18:23;94759.94;;;9.78;100.00
11810;BME280;5962;41.566;23.734;2024-03-02T02:20:51;94759.44;;;9.81;100.00
11810;BME280;5962;41.566;23.734;2024-03-02T02:23:21;94762.88;;;9.82;100.00
11810;BME280;5962;41.566;23.734;2024-03-02T02:25:49;94761.28;;;9.81;100.00
11810;BME280;5962;41.566;23.734;2024-03-02T02:28:17;94760.00;;;9.83;100.00
11810;BME280;5962;41.566;23.734;2024-03-02T02:30:45;94756.25;;;9.79;100.00
11810;BME280;5962;41.566;23.734;2024-03-02T02:33:13;94753.88;;;9.78;100.00
11810;BME280;5962;41.566;23.734;2024-03-02T02:35:41;94767.13;;;9.83;100.00
11810;BME280;5962;41.566;23.734;2024-03-02T02:38:09;94763.63;;;9.77;100.00
11810;BME280;5962;41.566;23.734;2024-03-02T02:40:38;94762.59;;;9.78;100.00
11810;BME280;5962;41.566;23.734;2024-03-02T02:43:06;94755.75;;;9.82;100.00
11810;BME280;5962;41.566;23.734;2024-03-02T02:45:34;94760.00;;;9.83;100.00
11810;BME280;5962;41.566;23.734;2024-03-02T02:48:03;94753.91;;;9.83;100.00
11810;BME280;5962;41.566;23.734;2024-03-02T02:50:31;94761.91;;;9.88;100.00
11810;BME280;5962;41.566;23.734;2024-03-02T02:52:59;94762.75;;;9.93;100.00
11810;BME280;5962;41.566;23.734;2024-03-02T02:55:27;94760.78;;;9.84;100.00
11810;BME280;5962;41.566;23.734;2024-03-02T02:57:57;94758.13;;;9.84;100.00
11810;BME280;5962;41.566;23.734;2024-03-02T03:00:25;94751.03;;;9.84;100.00
11810;BME280;5962;41.566;23.734;2024-03-02T03:02:53;94764.34;;;9.94;100.00
11810;BME280;5962;41.566;23.734;2024-03-02T03:05:21;94756.59;;;9.88;100.00
11810;BME280;5962;41.566;23.734;2024-03-02T03:07:49;94758.63;;;9.81;100.00
11810;BME280;5962;41.566;23.734;2024-03-02T03:10:17;94758.34;;;9.77;100.00
11810;BME280;5962;41.566;23.734;2024-03-02T03:12:48;94759.66;;;9.75;100.00
11810;BME280;5962;41.566;23.734;2024-03-02T03:15:18;94753.53;;;9.74;100.00
11810;BME280;5962;41.566;23.734;2024-03-02T03:17:46;94754.34;;;9.75;100.00
11810;BME280;5962;41.566;23.734;2024-03-02T03:20:14;94749.63;;;9.77;100.00
11810;BME280;5962;41.566;23.734;2024-03-02T03:22:43;94754.38;;;9.80;100.00
11810;BME280;5962;41.566;23.734;2024-03-02T03:25:11;94749.09;;;9.80;100.00
11810;BME280;5962;41.566;23.734;2024-03-02T03:27:39;94746.72;;;9.78;100.00
11810;BME280;5962;41.566;23.734;2024-03-02T03:30:09;94750.75;;;9.86;100.00
11810;BME280;5962;41.566;23.734;2024-03-02T03:32:38;94751.81;;;9.85;100.00
11810;BME280;5962;41.566;23.734;2024-03-02T03:35:07;94750.69;;;9.81;100.00
11810;BME280;5962;41.566;23.734;2024-03-02T03:37:35;94758.94;;;9.84;100.00
11810;BME280;5962;41.566;23.734;2024-03-02T03:40:04;94755.75;;;9.82;100.00
11810;BME280;5962;41.566;23.734;2024-03-02T03:42:36;94757.66;;;9.87;100.00
11810;BME280;5962;41.566;23.734;2024-03-02T03:45:05;94760.03;;;9.88;100.00
11810;BME280;5962;41.566;23.734;2024-03-02T03:47:34;94756.53;;;9.83;100.00
11810;BME280;5962;41.566;23.734;2024-03-02T03:50:05;94752.50;;;9.75;100.00
11810;BME280;5962;41.566;23.734;2024-03-02T03:52:33;94756.25;;;9.79;100.00
11810;BME280;5962;41.566;23.734;2024-03-02T03:55:01;94762.09;;;9.81;100.00
11810;BME280;5962;41.566;23.734;2024-03-02T03:57:29;94753.03;;;9.77;100.00
11810;BME280;5962;41.566;23.734;2024-03-02T03:59:57;94748.56;;;9.78;100.00
11810;BME280;5962;41.566;23.734;2024-03-02T04:02:26;94749.06;;;9.75;100.00
11810;BME280;5962;41.566;23.734;2024-03-02T04:04:54;94752.84;;;9.84;100.00
11810;BME280;5962;41.566;23.734;2024-03-02T04:07:23;94754.34;;;9.75;100.00
11810;BME280;5962;41.566;23.734;2024-03-02T04:09:51;94753.00;;;9.72;100.00
11810;BME280;5962;41.566;23.734;2024-03-02T04:12:20;94754.84;;;9.72;100.00
11810;BME280;5962;41.566;23.734;2024-03-02T04:14:48;94758.03;;;9.74;100.00
11810;BME280;5962;41.566;23.734;2024-03-02T04:17:16;94753.31;;;9.76;100.00
11810;BME280;5962;41.566;23.734;2024-03-02T04:19:44;94753.81;;;9.73;100.00
11810;BME280;5962;41.566;23.734;2024-03-02T04:22:12;94760.50;;;9.80;100.00
11810;BME280;5962;41.566;23.734;2024-03-02T04:24:42;94757.34;;;9.83;100.00
11810;BME280;5962;41.566;23.734;2024-03-02T04:27:09;94753.41;;;9.86;100.00
11810;BME280;5962;41.566;23.734;2024-03-02T04:29:37;94749.91;;;9.80;100.00
11810;BME280;5962;41.566;23.734;2024-03-02T04:32:06;94755.50;;;9.84;100.00
11810;BME280;5962;41.566;23.734;2024-03-02T04:34:34;94755.44;;;9.79;100.00
11810;BME280;5962;41.566;23.734;2024-03-02T04:37:02;94761.03;;;9.82;100.00
11810;BME280;5962;41.566;23.734;2024-03-02T04:39:30;94756.94;;;9.70;100.00
11810;BME280;5962;41.566;23.734;2024-03-02T04:41:59;94765.63;;;9.65;100.00
11810;BME280;5962;41.566;23.734;2024-03-02T04:44:27;94759.56;;;9.70;100.00
11810;BME280;5962;41.566;23.734;2024-03-02T04:46:55;94758.25;;;9.67;100.00
11810;BME280;5962;41.566;23.734;2024-03-02T04:49:23;94759.22;;;9.61;100.00
11810;BME280;5962;41.566;23.734;2024-03-02T04:51:51;94763.25;;;9.64;100.00
11810;BME280;5962;41.566;23.734;2024-03-02T04:54:19;94760.41;;;9.70;100.00
11810;BME280;5962;41.566;23.734;2024-03-02T04:56:47;94757.06;;;9.58;100.00
11810;BME280;5962;41.566;23.734;2024-03-02T04:59:18;94766.59;;;9.59;100.00
11810;BME280;5962;41.566;23.734;2024-03-02T05:01:46;94771.41;;;9.62;100.00
11810;BME280;5962;41.566;23.734;2024-03-02T05:04:14;94764.22;;;9.58;100.00
11810;BME280;5962;41.566;23.734;2024-03-02T05:06:43;94769.31;;;9.64;100.00
11810;BME280;5962;41.566;23.734;2024-03-02T05:09:11;94761.63;;;9.63;100.00
11810;BME280;5962;41.566;23.734;2024-03-02T05:11:39;94771.66;;;9.61;100.00
11810;BME280;5962;41.566;23.734;2024-03-02T05:14:27;94781.41;;;9.60;100.00
11810;BME280;5962;41.566;23.734;2024-03-02T05:16:55;94778.53;;;9.62;100.00
11810;BME280;5962;41.566;23.734;2024-03-02T05:19:23;94775.63;;;9.63;100.00
11810;BME280;5962;41.566;23.734;2024-03-02T05:21:51;94779.63;;;9.66;100.00
11810;BME280;5962;41.566;23.734;2024-03-02T05:24:19;94780.81;;;9.75;100.00
11810;BME280;5962;41.566;23.734;2024-03-02T05:26:47;94793.97;;;9.70;100.00
11810;BME280;5962;41.566;23.734;2024-03-02T05:29:16;94780.81;;;9.75;100.00
11810;BME280;5962;41.566;23.734;2024-03-02T05:31:45;94773.84;;;9.69;100.00
11810;BME280;5962;41.566;23.734;2024-03-02T05:34:13;94782.06;;;9.72;100.00
11810;BME280;5962;41.566;23.734;2024-03-02T05:36:41;94790.53;;;9.69;100.00
11810;BME280;5962;41.566;23.734;2024-03-02T05:39:09;94781.59;;;9.75;100.00
11810;BME280;5962;41.566;23.734;2024-03-02T05:41:37;94783.44;;;9.75;100.00
11810;BME280;5962;41.566;23.734;2024-03-02T05:44:05;94788.53;;;9.81;100.00
11810;BME280;5962;41.566;23.734;2024-03-02T05:46:33;94784.84;;;9.82;100.00
11810;BME280;5962;41.566;23.734;2024-03-02T05:49:04;94790.69;;;9.84;100.00
11810;BME280;5962;41.566;23.734;2024-03-02T05:51:34;94794.69;;;9.87;100.00
11810;BME280;5962;41.566;23.734;2024-03-02T05:54:02;94796.22;;;9.83;100.00
11810;BME280;5962;41.566;23.734;2024-03-02T05:56:30;94800.75;;;9.87;100.00
11810;BME280;5962;41.566;23.734;2024-03-02T05:58:58;94800.81;;;9.92;100.00
11810;BME280;5962;41.566;23.734;2024-03-02T06:01:39;94795.78;;;9.91;100.00
11810;BME280;5962;41.566;23.734;2024-03-02T06:04:09;94779.38;;;9.89;100.00
11810;BME280;5962;41.566;23.734;2024-03-02T06:06:37;94796.22;;;10.04;100.00
11810;BME280;5962;41.566;23.734;2024-03-02T06:09:06;94804.22;;;10.09;100.00
11810;BME280;5962;41.566;23.734;2024-03-02T06:11:34;94798.34;;;10.07;100.00
11810;BME280;5962;41.566;23.734;2024-03-02T06:14:03;94796.28;;;10.09;100.00
11810;BME280;5962;41.566;23.734;2024-03-02T06:16:31;94802.69;;;10.18;100.00
11810;BME280;5962;41.566;23.734;2024-03-02T06:19:00;94802.22;;;10.26;100.00
11810;BME280;5962;41.566;23.734;2024-03-02T06:21:29;94810.78;;;10.33;100.00
11810;BME280;5962;41.566;23.734;2024-03-02T06:23:57;94806.06;;;10.40;100.00
11810;BME280;5962;41.566;23.734;2024-03-02T06:26:25;94803.25;;;10.51;100.00
11810;BME280;5962;41.566;23.734;2024-03-02T06:28:53;94805.94;;;10.56;100.00
11810;BME280;5962;41.566;23.734;2024-03-02T06:31:21;94801.50;;;10.62;100.00
11810;BME280;5962;41.566;23.734;2024-03-02T06:33:49;94807.91;;;10.71;100.00
11810;BME280;5962;41.566;23.734;2024-03-02T06:36:17;94802.94;;;10.79;100.00
11810;BME280;5962;41.566;23.734;2024-03-02T06:38:47;94807.50;;;10.89;100.00
11810;BME280;5962;41.566;23.734;2024-03-02T06:41:15;94806.25;;;10.96;100.00
11810;BME280;5962;41.566;23.734;2024-03-02T06:43:43;94810.72;;;10.96;100.00
11810;BME280;5962;41.566;23.734;2024-03-02T06:46:11;94812.44;;;11.12;100.00
11810;BME280;5962;41.566;23.734;2024-03-02T06:48:41;94810.28;;;11.09;100.00
11810;BME280;5962;41.566;23.734;2024-03-02T06:51:09;94810.59;;;11.12;100.00
11810;BME280;5962;41.566;23.734;2024-03-02T06:53:37;94811.44;;;11.23;100.00
11810;BME280;5962;41.566;23.734;2024-03-02T06:56:07;94804.28;;;11.23;100.00
11810;BME280;5962;41.566;23.734;2024-03-02T06:58:36;94812.56;;;11.36;100.00
11810;BME280;5962;41.566;23.734;2024-03-02T07:01:04;94816.13;;;11.57;100.00
11810;BME280;5962;41.566;23.734;2024-03-02T07:03:32;94815.34;;;11.61;100.00
11810;BME280;5962;41.566;23.734;2024-03-02T07:06:00;94810.38;;;11.75;100.00
11810;BME280;5962;41.566;23.734;2024-03-02T07:08:28;94810.13;;;11.81;100.00
11810;BME280;5962;41.566;23.734;2024-03-02T07:10:56;94814.38;;;11.87;100.00
11810;BME280;5962;41.566;23.734;2024-03-02T07:13:26;94823.47;;;11.96;100.00
11810;BME280;5962;41.566;23.734;2024-03-02T07:15:54;94812.84;;;12.01;100.00
11810;BME280;5962;41.566;23.734;2024-03-02T07:18:54;94818.72;;;12.13;100.00
11810;BME280;5962;41.566;23.734;2024-03-02T07:21:23;94814.50;;;12.27;100.00
11810;BME280;5962;41.566;23.734;2024-03-02T07:23:51;94814.00;;;12.35;100.00
11810;BME280;5962;41.566;23.734;2024-03-02T07:26:19;94810.81;;;12.48;100.00
11810;BME280;5962;41.566;23.734;2024-03-02T07:28:51;94805.50;;;12.63;100.00
11810;BME280;5962;41.566;23.734;2024-03-02T07:31:19;94821.47;;;12.78;100.00
11810;BME280;5962;41.566;23.734;2024-03-02T07:33:48;94819.88;;;12.97;100.00
11810;BME280;5962;41.566;23.734;2024-03-02T07:36:16;94819.84;;;13.17;100.00
11810;BME280;5962;41.566;23.734;2024-03-02T07:38:44;94820.91;;;13.30;100.00
11810;BME280;5962;41.566;23.734;2024-03-02T07:41:12;94814.72;;;13.50;100.00
11810;BME280;5962;41.566;23.734;2024-03-02T07:43:40;94821.59;;;13.56;100.00
11810;BME280;5962;41.566;23.734;2024-03-02T07:46:09;94821.91;;;13.54;100.00
11810;BME280;5962;41.566;23.734;2024-03-02T07:48:37;94829.88;;;13.59;100.00
11810;BME280;5962;41.566;23.734;2024-03-02T07:51:05;94829.31;;;13.62;100.00
11810;BME280;5962;41.566;23.734;2024-03-02T07:53:33;94838.38;;;13.51;100.00
11810;BME280;5962;41.566;23.734;2024-03-02T07:56:03;94831.50;;;13.40;100.00
11810;BME280;5962;41.566;23.734;2024-03-02T07:58:32;94833.66;;;13.28;100.00
11810;BME280;5962;41.566;23.734;2024-03-02T08:01:02;94839.81;;;13.09;100.00
11810;BME280;5962;41.566;23.734;2024-03-02T08:03:31;94836.63;;;12.92;100.00
11810;BME280;5962;41.566;23.734;2024-03-02T08:06:00;94838.72;;;13.00;100.00
11810;BME280;5962;41.566;23.734;2024-03-02T08:08:29;94836.63;;;13.02;100.00
11810;BME280;5962;41.566;23.734;2024-03-02T08:10:56;94840.09;;;13.03;100.00
11810;BME280;5962;41.566;23.734;2024-03-02T08:13:25;94844.31;;;13.09;100.00
11810;BME280;5962;41.566;23.734;2024-03-02T08:15:53;94846.44;;;13.17;100.00
11810;BME280;5962;41.566;23.734;2024-03-02T08:18:21;94848.06;;;13.18;100.00
11810;BME280;5962;41.566;23.734;2024-03-02T08:20:51;94843.25;;;13.19;100.00
11810;BME280;5962;41.566;23.734;2024-03-02T08:23:19;94848.56;;;13.15;100.00
11810;BME280;5962;41.566;23.734;2024-03-02T08:25:47;94847.75;;;13.14;100.00
11810;BME280;5962;41.566;23.734;2024-03-02T08:28:15;94847.00;;;12.99;100.00
11810;BME280;5962;41.566;23.734;2024-03-02T08:30:44;94855.50;;;12.91;100.00
11810;BME280;5962;41.566;23.734;2024-03-02T08:33:12;94849.13;;;12.92;100.00
11810;BME280;5962;41.566;23.734;2024-03-02T08:35:40;94853.09;;;12.94;100.00
11810;BME280;5962;41.566;23.734;2024-03-02T08:38:09;94848.59;;;13.00;100.00
11810;BME280;5962;41.566;23.734;2024-03-02T08:40:37;94855.75;;;13.04;100.00
11810;BME280;5962;41.566;23.734;2024-03-02T08:43:06;94854.44;;;13.07;100.00
11810;BME280;5962;41.566;23.734;2024-03-02T08:45:34;94843.28;;;13.05;100.00
11810;BME280;5962;41.566;23.734;2024-03-02T08:48:03;94848.31;;;12.96;100.00
11810;BME280;5962;41.566;23.734;2024-03-02T08:50:31;94860.53;;;12.92;100.00
11810;BME280;5962;41.566;23.734;2024-03-02T08:52:59;94853.38;;;12.93;100.00
11810;BME280;5962;41.566;23.734;2024-03-02T08:55:29;94857.34;;;12.90;100.00
11810;BME280;5962;41.566;23.734;2024-03-02T08:57:57;94854.97;;;12.99;100.00
11810;BME280;5962;41.566;23.734;2024-03-02T09:00:25;94858.94;;;13.06;100.00
11810;BME280;5962;41.566;23.734;2024-03-02T09:02:53;94856.56;;;13.19;100.00
11810;BME280;5962;41.566;23.734;2024-03-02T09:05:21;94857.59;;;13.28;100.00
11810;BME280;5962;41.566;23.734;2024-03-02T09:07:49;94853.84;;;13.34;100.00
11810;BME280;5962;41.566;23.734;2024-03-02T09:10:17;94853.03;;;13.49;100.00
11810;BME280;5962;41.566;23.734;2024-03-02T09:12:47;94852.72;;;13.65;100.00
11810;BME280;5962;41.566;23.734;2024-03-02T09:15:15;94858.53;;;13.87;100.00
11810;BME280;5962;41.566;23.734;2024-03-02T09:17:43;94865.16;;;13.90;100.00
11810;BME280;5962;41.566;23.734;2024-03-02T09:20:11;94861.16;;;13.92;100.00
11810;BME280;5962;41.566;23.734;2024-03-02T09:22:40;94865.34;;;14.08;100.00
11810;BME280;5962;41.566;23.734;2024-03-02T09:25:09;94859.75;;;14.19;100.00
11810;BME280;5962;41.566;23.734;2024-03-02T09:27:37;94854.38;;;14.24;100.00
11810;BME280;5962;41.566;23.734;2024-03-02T09:30:08;94859.44;;;14.26;100.00
11810;BME280;5962;41.566;23.734;2024-03-02T09:32:37;94849.81;;;14.30;100.00
11810;BME280;5962;41.566;23.734;2024-03-02T09:35:05;94856.28;;;14.19;100.00
11810;BME280;5962;41.566;23.734;2024-03-02T09:37:34;94850.78;;;13.91;100.00
11810;BME280;5962;41.566;23.734;2024-03-02T09:40:02;94849.22;;;13.80;100.00
11810;BME280;5962;41.566;23.734;2024-03-02T09:42:31;94855.09;;;13.72;100.00
11810;BME280;5962;41.566;23.734;2024-03-02T09:45:00;94843.75;;;13.36;100.00
11810;BME280;5962;41.566;23.734;2024-03-02T09:47:29;94851.75;;;13.31;100.00
11810;BME280;5962;41.566;23.734;2024-03-02T09:49:57;94845.31;;;13.47;100.00
11810;BME280;5962;41.566;23.734;2024-03-02T09:52:25;94846.63;;;13.65;100.00
11810;BME280;5962;41.566;23.734;2024-03-02T09:54:54;94841.25;;;13.70;100.00
11810;BME280;5962;41.566;23.734;2024-03-02T09:57:22;94846.09;;;13.58;100.00
11810;BME280;5962;41.566;23.734;2024-03-02T09:59:50;94833.56;;;13.63;100.00
11810;BME280;5962;41.566;23.734;2024-03-02T10:02:18;94842.56;;;13.87;100.00
11810;BME280;5962;41.566;23.734;2024-03-02T10:04:49;94837.66;;;14.09;100.00
11810;BME280;5962;41.566;23.734;2024-03-02T10:07:18;94837.81;;;14.32;100.00
11810;BME280;5962;41.566;23.734;2024-03-02T10:09:47;94823.16;;;14.30;100.00
11810;BME280;5962;41.566;23.734;2024-03-02T10:12:17;94835.88;;;14.43;100.00
11810;BME280;5962;41.566;23.734;2024-03-02T10:14:45;94818.38;;;14.32;100.00
11810;BME280;5962;41.566;23.734;2024-03-02T10:17:17;94815.91;;;14.40;100.00
11810;BME280;5962;41.566;23.734;2024-03-02T10:19:47;94837.13;;;14.60;100.00
11810;BME280;5962;41.566;23.734;2024-03-02T10:22:15;94838.78;;;14.85;100.00
11810;BME280;5962;41.566;23.734;2024-03-02T10:24:44;94838.56;;;15.09;100.00
11810;BME280;5962;41.566;23.734;2024-03-02T10:27:15;94832.09;;;15.20;100.00
11810;BME280;5962;41.566;23.734;2024-03-02T10:29:46;94831.94;;;15.40;100.00
11810;BME280;5962;41.566;23.734;2024-03-02T10:32:15;94832.63;;;15.51;100.00
11810;BME280;5962;41.566;23.734;2024-03-02T10:34:45;94823.25;;;15.53;100.00
11810;BME280;5962;41.566;23.734;2024-03-02T10:37:15;94831.59;;;15.47;99.29
11810;BME280;5962;41.566;23.734;2024-03-02T10:39:46;94823.91;;;15.12;100.00
11810;BME280;5962;41.566;23.734;2024-03-02T10:42:14;94821.16;;;14.89;100.00
11810;BME280;5962;41.566;23.734;2024-03-02T10:44:43;94823.72;;;14.70;100.00
11810;BME280;5962;41.566;23.734;2024-03-02T10:47:12;94814.22;;;14.59;100.00
11810;BME280;5962;41.566;23.734;2024-03-02T10:49:42;94813.59;;;14.67;100.00
11810;BME280;5962;41.566;23.734;2024-03-02T10:52:11;94809.88;;;14.68;100.00
11810;BME280;5962;41.566;23.734;2024-03-02T10:54:40;94807.22;;;14.63;100.00
11810;BME280;5962;41.566;23.734;2024-03-02T10:57:10;94805.53;;;14.77;100.00
11810;BME280;5962;41.566;23.734;2024-03-02T10:59:44;94806.91;;;15.03;100.00
11810;BME280;5962;41.566;23.734;2024-03-02T11:02:17;94809.19;;;15.14;100.00
11810;BME280;5962;41.566;23.734;2024-03-02T11:04:46;94808.00;;;15.30;100.00
11810;BME280;5962;41.566;23.734;2024-03-02T11:07:17;94811.19;;;15.32;100.00
11810;BME280;5962;41.566;23.734;2024-03-02T11:09:54;94795.59;;;15.44;100.00
11810;BME280;5962;41.566;23.734;2024-03-02T11:12:29;94793.19;;;15.66;100.00
11810;BME280;5962;41.566;23.734;2024-03-02T11:14:58;94794.75;;;15.72;99.47
11810;BME280;5962;41.566;23.734;2024-03-02T11:17:26;94786.34;;;16.02;97.40
11810;BME280;5962;41.566;23.734;2024-03-02T11:19:55;94787.69;;;16.23;92.47
11810;BME280;5962;41.566;23.734;2024-03-02T11:22:23;94799.63;;;16.49;93.37
11810;BME280;5962;41.566;23.734;2024-03-02T11:24:53;94781.72;;;16.68;89.54
11810;BME280;5962;41.566;23.734;2024-03-02T11:30:50;94777.09;;;16.87;87.04
11810;BME280;5962;41.566;23.734;2024-03-02T11:33:25;94786.22;;;16.86;86.41
11810;BME280;5962;41.566;23.734;2024-03-02T11:35:57;94780.50;;;16.92;84.45
11810;BME280;5962;41.566;23.734;2024-03-02T11:38:31;94779.78;;;16.55;90.25
11810;BME280;5962;41.566;23.734;2024-03-02T11:41:03;94783.25;;;16.69;73.00
11810;BME280;5962;41.566;23.734;2024-03-02T11:43:37;94781.78;;;16.63;66.74
11810;BME280;5962;41.566;23.734;2024-03-02T11:46:06;94770.59;;;16.42;63.69
11810;BME280;5962;41.566;23.734;2024-03-02T11:48:35;94764.09;;;16.48;66.54
11810;BME280;5962;41.566;23.734;2024-03-02T11:51:04;94770.44;;;16.52;64.78
11810;BME280;5962;41.566;23.734;2024-03-02T11:53:33;94766.91;;;16.38;63.31
11810;BME280;5962;41.566;23.734;2024-03-02T11:56:06;94763.78;;;16.13;65.65
11810;BME280;5962;41.566;23.734;2024-03-02T11:58:36;94755.59;;;15.86;67.80
11810;BME280;5962;41.566;23.734;2024-03-02T12:01:05;94762.28;;;16.02;67.67
11810;BME280;5962;41.566;23.734;2024-03-02T12:03:34;94759.91;;;16.01;66.01
11810;BME280;5962;41.566;23.734;2024-03-02T12:06:03;94762.56;;;15.82;67.03
11810;BME280;5962;41.566;23.734;2024-03-02T12:08:32;94765.09;;;15.50;71.06
11810;BME280;5962;41.566;23.734;2024-03-02T12:11:01;94752.84;;;15.21;73.01
11810;BME280;5962;41.566;23.734;2024-03-02T12:13:31;94753.50;;;15.08;75.15
11810;BME280;5962;41.566;23.734;2024-03-02T12:16:00;94753.00;;;15.06;73.80
11810;BME280;5962;41.566;23.734;2024-03-02T12:18:28;94763.72;;;15.01;73.44
11810;BME280;5962;41.566;23.734;2024-03-02T12:20:56;94763.72;;;15.01;72.93
11810;BME280;5962;41.566;23.734;2024-03-02T12:23:25;94763.91;;;14.81;73.79
11810;BME280;5962;41.566;23.734;2024-03-02T12:25:53;94762.88;;;14.77;74.07
11810;BME280;5962;41.566;23.734;2024-03-02T12:28:22;94758.03;;;14.79;74.32
11810;BME280;5962;41.566;23.734;2024-03-02T12:30:51;94754.59;;;14.79;75.93
11810;BME280;5962;41.566;23.734;2024-03-02T12:33:19;94749.63;;;14.67;78.32
11810;BME280;5962;41.566;23.734;2024-03-02T12:35:49;94760.81;;;14.69;79.13
11810;BME280;5962;41.566;23.734;2024-03-02T12:38:17;94752.38;;;14.57;80.21
11810;BME280;5962;41.566;23.734;2024-03-02T12:40:47;94758.78;;;14.56;82.82
11810;BME280;5962;41.566;23.734;2024-03-02T12:43:15;94754.28;;;14.52;83.93
11810;BME280;5962;41.566;23.734;2024-03-02T12:45:43;94753.78;;;14.50;83.52
11810;BME280;5962;41.566;23.734;2024-03-02T12:48:13;94751.56;;;14.57;84.17
11810;BME280;5962;41.566;23.734;2024-03-02T12:50:41;94754.00;;;14.53;84.92
11810;BME280;5962;41.566;23.734;2024-03-02T12:53:14;94758.03;;;14.51;87.92
11810;BME280;5962;41.566;23.734;2024-03-02T12:55:43;94760.75;;;14.41;92.66
11810;BME280;5962;41.566;23.734;2024-03-02T12:58:17;94741.06;;;14.37;93.33
11810;BME280;5962;41.566;23.734;2024-03-02T13:00:45;94761.72;;;14.55;92.22
11810;BME280;5962;41.566;23.734;2024-03-02T13:03:15;94752.31;;;14.62;91.74
11810;BME280;5962;41.566;23.734;2024-03-02T13:05:49;94751.22;;;14.68;90.89
11810;BME280;5962;41.566;23.734;2024-03-02T13:08:17;94751.44;;;14.72;89.61